sensor_id;sensor_type;location;lat;lon;timestamp;P1;durP1;ratioP1;P2;durP2;ratioP2
17686;SDS011;8962;52.538;13.266;2023-04-15T00:00:10;38.08;;;24.70;;
17686;SDS011;8962;52.538;13.266;2023-04-15T00:02:43;37.78;;;23.48;;
17686;SDS011;8962;52.538;13.266;2023-04-15T00:05:10;36.35;;;23.38;;
17686;SDS011;8962;52.538;13.266;2023-04-15T00:07:39;38.53;;;23.67;;
17686;SDS011;8962;52.538;13.266;2023-04-15T00:10:06;39.88;;;24.73;;
17686;SDS011;8962;52.538;13.266;2023-04-15T00:12:34;39.35;;;24.02;;
17686;SDS011;8962;52.538;13.266;2023-04-15T00:15:01;41.53;;;25.48;;
17686;SDS011;8962;52.538;13.266;2023-04-15T00:17:28;39.90;;;24.40;;
17686;SDS011;8962;52.538;13.266;2023-04-15T00:19:56;39.88;;;25.30;;
17686;SDS011;8962;52.538;13.266;2023-04-15T00:22:24;38.78;;;25.13;;
17686;SDS011;8962;52.538;13.266;2023-04-15T00:24:53;40.28;;;26.50;;
17686;SDS011;8962;52.538;13.266;2023-04-15T00:27:20;38.85;;;24.38;;
17686;SDS011;8962;52.538;13.266;2023-04-15T00:29:47;40.30;;;25.60;;
17686;SDS011;8962;52.538;13.266;2023-04-15T00:32:14;41.55;;;25.95;;
17686;SDS011;8962;52.538;13.266;2023-04-15T00:34:42;37.50;;;24.42;;
17686;SDS011;8962;52.538;13.266;2023-04-15T00:37:09;41.58;;;26.45;;
17686;SDS011;8962;52.538;13.266;2023-04-15T00:39:36;40.63;;;24.88;;
17686;SDS011;8962;52.538;13.266;2023-04-15T00:42:05;39.92;;;25.38;;
17686;SDS011;8962;52.538;13.266;2023-04-15T00:44:32;41.78;;;26.17;;
17686;SDS011;8962;52.538;13.266;2023-04-15T00:46:59;44.28;;;26.85;;
17686;SDS011;8962;52.538;13.266;2023-04-15T00:49:27;41.60;;;26.30;;
17686;SDS011;8962;52.538;13.266;2023-04-15T00:51:56;39.08;;;25.25;;
17686;SDS011;8962;52.538;13.266;2023-04-15T00:54:23;44.05;;;26.90;;
17686;SDS011;8962;52.538;13.266;2023-04-15T00:56:50;46.38;;;27.08;;
17686;SDS011;8962;52.538;13.266;2023-04-15T00:59:19;45.67;;;26.58;;
17686;SDS011;8962;52.538;13.266;2023-04-15T01:01:48;42.45;;;27.30;;
17686;SDS011;8962;52.538;13.266;2023-04-15T01:04:16;47.83;;;28.33;;
17686;SDS011;8962;52.538;13.266;2023-04-15T01:06:43;46.65;;;27.55;;
17686;SDS011;8962;52.538;13.266;2023-04-15T01:09:10;47.65;;;28.77;;
17686;SDS011;8962;52.538;13.266;2023-04-15T01:11:37;46.80;;;28.25;;
17686;SDS011;8962;52.538;13.266;2023-04-15T01:14:07;48.88;;;29.27;;
17686;SDS011;8962;52.538;13.266;2023-04-15T01:16:37;47.47;;;28.02;;
17686;SDS011;8962;52.538;13.266;2023-04-15T01:19:05;48.47;;;28.55;;
17686;SDS011;8962;52.538;13.266;2023-04-15T01:21:35;48.65;;;29.50;;
17686;SDS011;8962;52.538;13.266;2023-04-15T01:24:03;50.63;;;29.15;;
17686;SDS011;8962;52.538;13.266;2023-04-15T01:29:08;48.60;;;28.73;;
17686;SDS011;8962;52.538;13.266;2023-04-15T01:31:35;49.72;;;30.35;;
17686;SDS011;8962;52.538;13.266;2023-04-15T01:34:02;47.42;;;28.40;;
17686;SDS011;8962;52.538;13.266;2023-04-15T01:36:29;53.33;;;31.15;;
17686;SDS011;8962;52.538;13.266;2023-04-15T01:38:56;50.65;;;30.75;;
17686;SDS011;8962;52.538;13.266;2023-04-15T01:41:24;50.08;;;29.38;;
17686;SDS011;8962;52.538;13.266;2023-04-15T01:43:52;51.83;;;30.10;;
17686;SDS011;8962;52.538;13.266;2023-04-15T01:46:21;53.60;;;30.95;;
17686;SDS011;8962;52.538;13.266;2023-04-15T01:48:49;54.20;;;31.15;;
17686;SDS011;8962;52.538;13.266;2023-04-15T01:51:17;53.33;;;30.98;;
17686;SDS011;8962;52.538;13.266;2023-04-15T01:53:44;51.97;;;30.25;;
17686;SDS011;8962;52.538;13.266;2023-04-15T01:56:11;52.22;;;31.08;;
17686;SDS011;8962;52.538;13.266;2023-04-15T01:58:38;55.33;;;31.85;;
17686;SDS011;8962;52.538;13.266;2023-04-15T02:01:05;53.58;;;31.15;;
17686;SDS011;8962;52.538;13.266;2023-04-15T02:03:36;56.05;;;32.67;;
17686;SDS011;8962;52.538;13.266;2023-04-15T02:06:07;56.10;;;32.03;;
17686;SDS011;8962;52.538;13.266;2023-04-15T02:08:34;59.38;;;32.42;;
17686;SDS011;8962;52.538;13.266;2023-04-15T02:11:05;54.35;;;31.75;;
17686;SDS011;8962;52.538;13.266;2023-04-15T02:13:32;56.42;;;32.20;;
17686;SDS011;8962;52.538;13.266;2023-04-15T02:15:59;53.55;;;30.95;;
17686;SDS011;8962;52.538;13.266;2023-04-15T02:18:27;58.58;;;32.38;;
17686;SDS011;8962;52.538;13.266;2023-04-15T02:20:55;56.88;;;32.17;;
17686;SDS011;8962;52.538;13.266;2023-04-15T02:23:22;57.50;;;32.70;;
17686;SDS011;8962;52.538;13.266;2023-04-15T02:25:49;53.90;;;32.08;;
17686;SDS011;8962;52.538;13.266;2023-04-15T02:28:17;55.42;;;30.80;;
17686;SDS011;8962;52.538;13.266;2023-04-15T02:30:46;57.97;;;31.80;;
17686;SDS011;8962;52.538;13.266;2023-04-15T02:33:15;57.40;;;32.90;;
17686;SDS011;8962;52.538;13.266;2023-04-15T02:35:42;62.42;;;34.88;;
17686;SDS011;8962;52.538;13.266;2023-04-15T02:38:11;55.13;;;31.63;;
17686;SDS011;8962;52.538;13.266;2023-04-15T02:40:38;58.53;;;32.65;;
17686;SDS011;8962;52.538;13.266;2023-04-15T02:43:05;63.33;;;34.00;;
17686;SDS011;8962;52.538;13.266;2023-04-15T02:45:33;58.92;;;34.15;;
17686;SDS011;8962;52.538;13.266;2023-04-15T02:48:03;63.72;;;34.92;;
17686;SDS011;8962;52.538;13.266;2023-04-15T02:50:30;60.33;;;33.42;;
17686;SDS011;8962;52.538;13.266;2023-04-15T02:52:57;55.45;;;32.20;;
17686;SDS011;8962;52.538;13.266;2023-04-15T02:55:26;55.53;;;31.48;;
17686;SDS011;8962;52.538;13.266;2023-04-15T02:57:54;56.58;;;32.80;;
17686;SDS011;8962;52.538;13.266;2023-04-15T03:00:23;59.08;;;32.63;;
17686;SDS011;8962;52.538;13.266;2023-04-15T03:02:50;55.72;;;32.08;;
17686;SDS011;8962;52.538;13.266;2023-04-15T03:05:23;62.00;;;33.17;;
17686;SDS011;8962;52.538;13.266;2023-04-15T03:07:50;62.10;;;33.65;;
17686;SDS011;8962;52.538;13.266;2023-04-15T03:10:18;61.22;;;34.15;;
17686;SDS011;8962;52.538;13.266;2023-04-15T03:12:47;67.18;;;34.78;;
17686;SDS011;8962;52.538;13.266;2023-04-15T03:15:20;65.80;;;34.22;;
17686;SDS011;8962;52.538;13.266;2023-04-15T03:17:50;59.92;;;32.65;;
17686;SDS011;8962;52.538;13.266;2023-04-15T03:20:17;60.35;;;32.92;;
17686;SDS011;8962;52.538;13.266;2023-04-15T03:22:46;60.72;;;33.63;;
17686;SDS011;8962;52.538;13.266;2023-04-15T03:25:14;66.45;;;33.92;;
17686;SDS011;8962;52.538;13.266;2023-04-15T03:27:41;60.72;;;33.28;;
17686;SDS011;8962;52.538;13.266;2023-04-15T03:30:12;59.10;;;32.35;;
17686;SDS011;8962;52.538;13.266;2023-04-15T03:32:40;61.35;;;33.25;;
17686;SDS011;8962;52.538;13.266;2023-04-15T03:35:07;68.70;;;35.10;;
17686;SDS011;8962;52.538;13.266;2023-04-15T03:37:35;61.85;;;33.92;;
17686;SDS011;8962;52.538;13.266;2023-04-15T03:40:02;62.13;;;34.15;;
17686;SDS011;8962;52.538;13.266;2023-04-15T03:42:29;60.53;;;34.05;;
17686;SDS011;8962;52.538;13.266;2023-04-15T03:44:57;59.33;;;33.67;;
17686;SDS011;8962;52.538;13.266;2023-04-15T03:47:25;58.67;;;33.20;;
17686;SDS011;8962;52.538;13.266;2023-04-15T03:49:52;58.00;;;32.25;;
17686;SDS011;8962;52.538;13.266;2023-04-15T03:52:20;54.78;;;31.55;;
17686;SDS011;8962;52.538;13.266;2023-04-15T03:54:47;59.35;;;32.75;;
17686;SDS011;8962;52.538;13.266;2023-04-15T03:57:14;56.42;;;32.17;;
17686;SDS011;8962;52.538;13.266;2023-04-15T03:59:42;61.65;;;33.50;;
17686;SDS011;8962;52.538;13.266;2023-04-15T04:02:09;58.60;;;33.72;;
17686;SDS011;8962;52.538;13.266;2023-04-15T04:04:37;59.17;;;32.50;;
17686;SDS011;8962;52.538;13.266;2023-04-15T04:07:04;57.03;;;32.67;;
17686;SDS011;8962;52.538;13.266;2023-04-15T04:09:32;60.90;;;32.08;;
17686;SDS011;8962;52.538;13.266;2023-04-15T04:11:59;54.97;;;31.67;;
17686;SDS011;8962;52.538;13.266;2023-04-15T04:14:26;58.13;;;32.65;;
17686;SDS011;8962;52.538;13.266;2023-04-15T04:16:54;57.20;;;31.25;;
17686;SDS011;8962;52.538;13.266;2023-04-15T04:19:21;55.35;;;31.50;;
17686;SDS011;8962;52.538;13.266;2023-04-15T04:21:50;53.58;;;30.33;;
17686;SDS011;8962;52.538;13.266;2023-04-15T04:24:18;54.78;;;30.60;;
17686;SDS011;8962;52.538;13.266;2023-04-15T04:26:45;49.63;;;29.20;;
17686;SDS011;8962;52.538;13.266;2023-04-15T04:29:12;53.90;;;31.80;;
17686;SDS011;8962;52.538;13.266;2023-04-15T04:31:39;52.60;;;30.45;;
17686;SDS011;8962;52.538;13.266;2023-04-15T04:34:07;55.78;;;30.77;;
17686;SDS011;8962;52.538;13.266;2023-04-15T04:36:34;51.47;;;30.52;;
17686;SDS011;8962;52.538;13.266;2023-04-15T04:39:02;52.60;;;29.90;;
17686;SDS011;8962;52.538;13.266;2023-04-15T04:41:29;49.78;;;29.65;;
17686;SDS011;8962;52.538;13.266;2023-04-15T04:43:57;51.65;;;30.48;;
17686;SDS011;8962;52.538;13.266;2023-04-15T04:46:24;47.92;;;29.30;;
17686;SDS011;8962;52.538;13.266;2023-04-15T04:48:52;49.67;;;29.90;;
17686;SDS011;8962;52.538;13.266;2023-04-15T04:51:19;51.67;;;30.75;;
17686;SDS011;8962;52.538;13.266;2023-04-15T04:53:47;47.22;;;29.15;;
17686;SDS011;8962;52.538;13.266;2023-04-15T04:56:16;49.85;;;30.73;;
17686;SDS011;8962;52.538;13.266;2023-04-15T04:58:43;49.80;;;29.02;;
17686;SDS011;8962;52.538;13.266;2023-04-15T05:01:12;49.58;;;28.95;;
17686;SDS011;8962;52.538;13.266;2023-04-15T05:03:39;48.38;;;28.98;;
17686;SDS011;8962;52.538;13.266;2023-04-15T05:06:07;48.53;;;28.10;;
17686;SDS011;8962;52.538;13.266;2023-04-15T05:08:34;48.97;;;29.65;;
17686;SDS011;8962;52.538;13.266;2023-04-15T05:11:01;49.47;;;29.45;;
17686;SDS011;8962;52.538;13.266;2023-04-15T05:13:30;47.50;;;28.48;;
17686;SDS011;8962;52.538;13.266;2023-04-15T05:15:57;47.03;;;28.13;;
17686;SDS011;8962;52.538;13.266;2023-04-15T05:18:24;44.92;;;27.90;;
17686;SDS011;8962;52.538;13.266;2023-04-15T05:20:51;45.35;;;27.08;;
17686;SDS011;8962;52.538;13.266;2023-04-15T05:23:18;44.90;;;26.80;;
17686;SDS011;8962;52.538;13.266;2023-04-15T05:25:46;42.42;;;25.98;;
17686;SDS011;8962;52.538;13.266;2023-04-15T05:28:13;42.92;;;26.23;;
17686;SDS011;8962;52.538;13.266;2023-04-15T05:30:42;41.75;;;25.85;;
17686;SDS011;8962;52.538;13.266;2023-04-15T05:33:09;41.17;;;25.23;;
17686;SDS011;8962;52.538;13.266;2023-04-15T05:35:37;42.30;;;26.55;;
17686;SDS011;8962;52.538;13.266;2023-04-15T05:38:05;45.78;;;25.85;;
17686;SDS011;8962;52.538;13.266;2023-04-15T05:40:33;37.63;;;24.85;;
17686;SDS011;8962;52.538;13.266;2023-04-15T05:43:01;39.25;;;25.65;;
17686;SDS011;8962;52.538;13.266;2023-04-15T05:45:28;38.67;;;25.35;;
17686;SDS011;8962;52.538;13.266;2023-04-15T05:47:56;36.08;;;24.30;;
17686;SDS011;8962;52.538;13.266;2023-04-15T05:50:23;38.40;;;23.60;;
17686;SDS011;8962;52.538;13.266;2023-04-15T05:52:51;38.40;;;24.38;;
17686;SDS011;8962;52.538;13.266;2023-04-15T05:55:18;36.75;;;23.27;;
17686;SDS011;8962;52.538;13.266;2023-04-15T05:57:46;36.08;;;23.45;;
17686;SDS011;8962;52.538;13.266;2023-04-15T06:00:14;35.90;;;23.35;;
17686;SDS011;8962;52.538;13.266;2023-04-15T06:02:41;36.95;;;23.85;;
17686;SDS011;8962;52.538;13.266;2023-04-15T06:05:10;34.25;;;22.77;;
17686;SDS011;8962;52.538;13.266;2023-04-15T06:07:37;33.03;;;21.58;;
17686;SDS011;8962;52.538;13.266;2023-04-15T06:10:05;38.88;;;22.67;;
17686;SDS011;8962;52.538;13.266;2023-04-15T06:12:33;31.48;;;21.75;;
17686;SDS011;8962;52.538;13.266;2023-04-15T06:15:03;33.53;;;21.75;;
17686;SDS011;8962;52.538;13.266;2023-04-15T06:17:34;31.23;;;20.30;;
17686;SDS011;8962;52.538;13.266;2023-04-15T06:20:02;28.75;;;20.58;;
17686;SDS011;8962;52.538;13.266;2023-04-15T06:22:32;25.67;;;18.67;;
17686;SDS011;8962;52.538;13.266;2023-04-15T06:24:59;26.73;;;19.60;;
17686;SDS011;8962;52.538;13.266;2023-04-15T06:27:27;29.02;;;19.23;;
17686;SDS011;8962;52.538;13.266;2023-04-15T06:29:55;27.70;;;18.45;;
17686;SDS011;8962;52.538;13.266;2023-04-15T06:32:23;27.52;;;18.77;;
17686;SDS011;8962;52.538;13.266;2023-04-15T06:34:50;26.42;;;18.77;;
17686;SDS011;8962;52.538;13.266;2023-04-15T06:37:17;24.52;;;16.70;;
17686;SDS011;8962;52.538;13.266;2023-04-15T06:39:46;24.13;;;17.15;;
17686;SDS011;8962;52.538;13.266;2023-04-15T06:42:13;25.10;;;18.00;;
17686;SDS011;8962;52.538;13.266;2023-04-15T06:44:41;21.08;;;15.68;;
17686;SDS011;8962;52.538;13.266;2023-04-15T06:47:08;22.55;;;16.90;;
17686;SDS011;8962;52.538;13.266;2023-04-15T06:49:37;23.67;;;16.58;;
17686;SDS011;8962;52.538;13.266;2023-04-15T06:52:05;23.48;;;15.88;;
17686;SDS011;8962;52.538;13.266;2023-04-15T06:54:32;22.55;;;15.23;;
17686;SDS011;8962;52.538;13.266;2023-04-15T06:57:03;23.35;;;15.48;;
17686;SDS011;8962;52.538;13.266;2023-04-15T06:59:30;21.15;;;14.80;;
17686;SDS011;8962;52.538;13.266;2023-04-15T07:01:57;19.08;;;14.35;;
17686;SDS011;8962;52.538;13.266;2023-04-15T07:04:25;24.73;;;14.45;;
17686;SDS011;8962;52.538;13.266;2023-04-15T07:06:53;19.65;;;13.68;;
17686;SDS011;8962;52.538;13.266;2023-04-15T07:09:22;20.05;;;13.95;;
17686;SDS011;8962;52.538;13.266;2023-04-15T07:11:50;17.15;;;13.73;;
17686;SDS011;8962;52.538;13.266;2023-04-15T07:14:19;19.23;;;13.20;;
17686;SDS011;8962;52.538;13.266;2023-04-15T07:16:46;19.02;;;13.70;;
17686;SDS011;8962;52.538;13.266;2023-04-15T07:19:14;20.92;;;13.48;;
17686;SDS011;8962;52.538;13.266;2023-04-15T07:21:41;18.77;;;13.93;;
17686;SDS011;8962;52.538;13.266;2023-04-15T07:24:08;17.42;;;12.73;;
17686;SDS011;8962;52.538;13.266;2023-04-15T07:26:35;21.05;;;13.55;;
17686;SDS011;8962;52.538;13.266;2023-04-15T07:29:03;18.98;;;13.93;;
17686;SDS011;8962;52.538;13.266;2023-04-15T07:31:34;15.20;;;12.75;;
17686;SDS011;8962;52.538;13.266;2023-04-15T07:34:05;16.88;;;12.35;;
17686;SDS011;8962;52.538;13.266;2023-04-15T07:36:32;17.70;;;13.07;;
17686;SDS011;8962;52.538;13.266;2023-04-15T07:39:00;21.83;;;14.23;;
17686;SDS011;8962;52.538;13.266;2023-04-15T07:41:28;18.38;;;12.90;;
17686;SDS011;8962;52.538;13.266;2023-04-15T07:43:55;15.90;;;13.02;;
17686;SDS011;8962;52.538;13.266;2023-04-15T07:46:23;16.88;;;13.13;;
17686;SDS011;8962;52.538;13.266;2023-04-15T07:48:52;16.00;;;12.50;;
17686;SDS011;8962;52.538;13.266;2023-04-15T07:51:20;17.40;;;13.15;;
17686;SDS011;8962;52.538;13.266;2023-04-15T07:53:47;17.67;;;12.75;;
17686;SDS011;8962;52.538;13.266;2023-04-15T07:56:15;16.75;;;13.68;;
17686;SDS011;8962;52.538;13.266;2023-04-15T07:58:42;19.40;;;13.63;;
17686;SDS011;8962;52.538;13.266;2023-04-15T08:01:09;17.10;;;13.63;;
17686;SDS011;8962;52.538;13.266;2023-04-15T08:03:37;19.35;;;14.20;;
17686;SDS011;8962;52.538;13.266;2023-04-15T08:06:08;19.83;;;14.38;;
17686;SDS011;8962;52.538;13.266;2023-04-15T08:08:35;18.17;;;13.65;;
17686;SDS011;8962;52.538;13.266;2023-04-15T08:11:02;17.83;;;14.05;;
17686;SDS011;8962;52.538;13.266;2023-04-15T08:13:29;19.65;;;13.50;;
17686;SDS011;8962;52.538;13.266;2023-04-15T08:18:44;16.55;;;13.80;;
17686;SDS011;8962;52.538;13.266;2023-04-15T08:21:13;20.83;;;14.77;;
17686;SDS011;8962;52.538;13.266;2023-04-15T08:23:40;19.48;;;14.57;;
17686;SDS011;8962;52.538;13.266;2023-04-15T08:26:08;18.48;;;14.23;;
17686;SDS011;8962;52.538;13.266;2023-04-15T08:28:36;20.42;;;14.43;;
17686;SDS011;8962;52.538;13.266;2023-04-15T08:31:13;21.48;;;15.13;;
17686;SDS011;8962;52.538;13.266;2023-04-15T08:33:42;18.98;;;14.20;;
17686;SDS011;8962;52.538;13.266;2023-04-15T08:36:10;21.00;;;15.00;;
17686;SDS011;8962;52.538;13.266;2023-04-15T08:38:39;19.38;;;14.40;;
17686;SDS011;8962;52.538;13.266;2023-04-15T08:41:15;19.58;;;15.45;;
17686;SDS011;8962;52.538;13.266;2023-04-15T08:43:48;21.55;;;15.38;;
17686;SDS011;8962;52.538;13.266;2023-04-15T08:46:19;26.08;;;15.68;;
17686;SDS011;8962;52.538;13.266;2023-04-15T08:48:47;18.30;;;14.50;;
17686;SDS011;8962;52.538;13.266;2023-04-15T08:51:16;17.77;;;14.23;;
17686;SDS011;8962;52.538;13.266;2023-04-15T08:53:45;21.63;;;14.32;;
17686;SDS011;8962;52.538;13.266;2023-04-15T08:56:13;17.65;;;14.60;;
17686;SDS011;8962;52.538;13.266;2023-04-15T08:58:42;17.42;;;13.95;;
17686;SDS011;8962;52.538;13.266;2023-04-15T09:01:10;21.38;;;13.57;;
17686;SDS011;8962;52.538;13.266;2023-04-15T09:03:38;17.90;;;13.82;;
17686;SDS011;8962;52.538;13.266;2023-04-15T09:06:07;19.02;;;15.00;;
17686;SDS011;8962;52.538;13.266;2023-04-15T09:08:35;22.15;;;16.10;;
17686;SDS011;8962;52.538;13.266;2023-04-15T09:11:04;19.80;;;14.68;;
17686;SDS011;8962;52.538;13.266;2023-04-15T09:13:32;20.48;;;14.90;;
17686;SDS011;8962;52.538;13.266;2023-04-15T09:16:00;18.35;;;14.45;;
17686;SDS011;8962;52.538;13.266;2023-04-15T09:18:29;19.27;;;14.57;;
17686;SDS011;8962;52.538;13.266;2023-04-15T09:21:02;22.70;;;15.63;;
17686;SDS011;8962;52.538;13.266;2023-04-15T09:23:31;20.50;;;14.77;;
17686;SDS011;8962;52.538;13.266;2023-04-15T09:25:59;19.10;;;14.38;;
17686;SDS011;8962;52.538;13.266;2023-04-15T09:28:28;18.38;;;14.85;;
17686;SDS011;8962;52.538;13.266;2023-04-15T09:30:56;17.83;;;14.98;;
17686;SDS011;8962;52.538;13.266;2023-04-15T09:33:24;19.52;;;14.98;;
17686;SDS011;8962;52.538;13.266;2023-04-15T09:35:56;19.45;;;14.48;;
17686;SDS011;8962;52.538;13.266;2023-04-15T09:38:25;18.15;;;14.77;;
17686;SDS011;8962;52.538;13.266;2023-04-15T09:40:54;19.77;;;15.10;;
17686;SDS011;8962;52.538;13.266;2023-04-15T09:43:25;19.67;;;14.35;;
17686;SDS011;8962;52.538;13.266;2023-04-15T09:46:09;18.85;;;14.32;;
17686;SDS011;8962;52.538;13.266;2023-04-15T09:48:36;17.95;;;13.60;;
17686;SDS011;8962;52.538;13.266;2023-04-15T09:51:03;21.40;;;15.27;;
17686;SDS011;8962;52.538;13.266;2023-04-15T09:53:32;18.08;;;13.75;;
17686;SDS011;8962;52.538;13.266;2023-04-15T09:56:01;21.90;;;13.85;;
17686;SDS011;8962;52.538;13.266;2023-04-15T09:58:29;18.10;;;13.68;;
17686;SDS011;8962;52.538;13.266;2023-04-15T10:00:59;15.75;;;13.38;;
17686;SDS011;8962;52.538;13.266;2023-04-15T10:03:30;17.52;;;14.13;;
17686;SDS011;8962;52.538;13.266;2023-04-15T10:06:00;18.70;;;14.93;;
17686;SDS011;8962;52.538;13.266;2023-04-15T10:08:29;17.83;;;15.35;;
17686;SDS011;8962;52.538;13.266;2023-04-15T10:10:57;21.75;;;14.50;;
17686;SDS011;8962;52.538;13.266;2023-04-15T10:13:28;20.23;;;15.68;;
17686;SDS011;8962;52.538;13.266;2023-04-15T10:16:03;17.17;;;14.27;;
17686;SDS011;8962;52.538;13.266;2023-04-15T10:18:33;20.05;;;14.80;;
17686;SDS011;8962;52.538;13.266;2023-04-15T10:21:01;18.20;;;14.90;;
17686;SDS011;8962;52.538;13.266;2023-04-15T10:23:31;18.90;;;14.75;;
17686;SDS011;8962;52.538;13.266;2023-04-15T10:25:59;22.65;;;15.00;;
17686;SDS011;8962;52.538;13.266;2023-04-15T10:28:26;18.92;;;14.68;;
17686;SDS011;8962;52.538;13.266;2023-04-15T10:30:54;20.95;;;15.27;;
17686;SDS011;8962;52.538;13.266;2023-04-15T10:33:26;20.55;;;15.63;;
17686;SDS011;8962;52.538;13.266;2023-04-15T10:35:54;20.73;;;15.25;;
17686;SDS011;8962;52.538;13.266;2023-04-15T10:38:33;19.63;;;15.57;;
17686;SDS011;8962;52.538;13.266;2023-04-15T10:41:14;19.83;;;15.52;;
17686;SDS011;8962;52.538;13.266;2023-04-15T10:43:47;18.75;;;15.55;;
17686;SDS011;8962;52.538;13.266;2023-04-15T10:46:20;19.38;;;15.32;;
17686;SDS011;8962;52.538;13.266;2023-04-15T10:48:52;18.52;;;15.02;;
17686;SDS011;8962;52.538;13.266;2023-04-15T10:51:26;18.50;;;14.93;;
17686;SDS011;8962;52.538;13.266;2023-04-15T10:53:58;21.40;;;16.58;;
17686;SDS011;8962;52.538;13.266;2023-04-15T10:56:27;20.05;;;14.95;;
17686;SDS011;8962;52.538;13.266;2023-04-15T10:58:55;20.25;;;15.43;;
17686;SDS011;8962;52.538;13.266;2023-04-15T11:01:37;19.73;;;15.95;;
17686;SDS011;8962;52.538;13.266;2023-04-15T11:07:38;17.85;;;14.63;;
17686;SDS011;8962;52.538;13.266;2023-04-15T11:13:21;19.52;;;15.57;;
17686;SDS011;8962;52.538;13.266;2023-04-15T11:15:57;18.50;;;14.63;;
17686;SDS011;8962;52.538;13.266;2023-04-15T11:18:26;18.40;;;15.38;;
17686;SDS011;8962;52.538;13.266;2023-04-15T11:20:57;19.02;;;15.27;;
17686;SDS011;8962;52.538;13.266;2023-04-15T11:23:31;19.77;;;14.95;;
17686;SDS011;8962;52.538;13.266;2023-04-15T11:26:01;21.95;;;15.15;;
17686;SDS011;8962;52.538;13.266;2023-04-15T11:28:30;17.20;;;15.02;;
17686;SDS011;8962;52.538;13.266;2023-04-15T11:31:02;19.13;;;15.13;;
17686;SDS011;8962;52.538;13.266;2023-04-15T11:33:32;17.83;;;14.98;;
17686;SDS011;8962;52.538;13.266;2023-04-15T11:36:01;17.85;;;14.25;;
17686;SDS011;8962;52.538;13.266;2023-04-15T11:38:28;19.25;;;14.40;;
17686;SDS011;8962;52.538;13.266;2023-04-15T11:40:56;20.00;;;13.95;;
17686;SDS011;8962;52.538;13.266;2023-04-15T11:43:24;19.85;;;14.82;;
17686;SDS011;8962;52.538;13.266;2023-04-15T11:45:52;17.73;;;13.70;;
17686;SDS011;8962;52.538;13.266;2023-04-15T11:48:21;16.98;;;13.90;;
17686;SDS011;8962;52.538;13.266;2023-04-15T11:50:53;19.27;;;13.88;;
17686;SDS011;8962;52.538;13.266;2023-04-15T11:53:23;17.50;;;13.43;;
17686;SDS011;8962;52.538;13.266;2023-04-15T11:56:05;16.33;;;13.43;;
17686;SDS011;8962;52.538;13.266;2023-04-15T11:58:33;19.20;;;14.23;;
17686;SDS011;8962;52.538;13.266;2023-04-15T12:01:02;16.70;;;13.45;;
17686;SDS011;8962;52.538;13.266;2023-04-15T12:03:30;17.67;;;13.50;;
17686;SDS011;8962;52.538;13.266;2023-04-15T12:06:12;17.48;;;13.38;;
17686;SDS011;8962;52.538;13.266;2023-04-15T12:08:51;14.95;;;12.70;;
17686;SDS011;8962;52.538;13.266;2023-04-15T12:11:34;18.02;;;13.18;;
17686;SDS011;8962;52.538;13.266;2023-04-15T12:14:10;16.70;;;13.10;;
17686;SDS011;8962;52.538;13.266;2023-04-15T12:16:47;15.27;;;13.35;;
17686;SDS011;8962;52.538;13.266;2023-04-15T12:19:22;17.58;;;13.95;;
17686;SDS011;8962;52.538;13.266;2023-04-15T12:21:52;15.80;;;13.55;;
17686;SDS011;8962;52.538;13.266;2023-04-15T12:24:25;16.85;;;13.90;;
17686;SDS011;8962;52.538;13.266;2023-04-15T12:26:53;16.83;;;12.90;;
17686;SDS011;8962;52.538;13.266;2023-04-15T12:29:24;15.82;;;12.95;;
17686;SDS011;8962;52.538;13.266;2023-04-15T12:31:53;17.67;;;13.18;;
17686;SDS011;8962;52.538;13.266;2023-04-15T12:34:26;16.13;;;13.05;;
17686;SDS011;8962;52.538;13.266;2023-04-15T12:36:55;16.05;;;13.48;;
17686;SDS011;8962;52.538;13.266;2023-04-15T12:39:25;16.52;;;13.25;;
17686;SDS011;8962;52.538;13.266;2023-04-15T12:41:53;15.02;;;12.68;;
17686;SDS011;8962;52.538;13.266;2023-04-15T12:44:21;14.48;;;12.45;;
17686;SDS011;8962;52.538;13.266;2023-04-15T12:46:49;15.15;;;12.52;;
17686;SDS011;8962;52.538;13.266;2023-04-15T12:49:18;14.02;;;11.93;;
17686;SDS011;8962;52.538;13.266;2023-04-15T12:51:47;15.02;;;12.27;;
17686;SDS011;8962;52.538;13.266;2023-04-15T12:54:16;14.85;;;12.25;;
17686;SDS011;8962;52.538;13.266;2023-04-15T12:56:44;15.25;;;12.70;;
17686;SDS011;8962;52.538;13.266;2023-04-15T12:59:13;15.43;;;11.55;;
17686;SDS011;8962;52.538;13.266;2023-04-15T13:01:42;15.00;;;12.13;;
17686;SDS011;8962;52.538;13.266;2023-04-15T13:04:09;14.27;;;11.43;;
17686;SDS011;8962;52.538;13.266;2023-04-15T13:06:36;15.18;;;12.07;;
17686;SDS011;8962;52.538;13.266;2023-04-15T13:09:03;13.43;;;11.55;;
17686;SDS011;8962;52.538;13.266;2023-04-15T13:11:31;13.65;;;10.75;;
17686;SDS011;8962;52.538;13.266;2023-04-15T13:14:01;13.18;;;10.80;;
17686;SDS011;8962;52.538;13.266;2023-04-15T13:16:29;14.38;;;11.30;;
17686;SDS011;8962;52.538;13.266;2023-04-15T13:18:57;14.80;;;11.10;;
17686;SDS011;8962;52.538;13.266;2023-04-15T13:21:28;13.52;;;11.02;;
17686;SDS011;8962;52.538;13.266;2023-04-15T13:23:56;12.35;;;10.23;;
17686;SDS011;8962;52.538;13.266;2023-04-15T13:26:24;13.48;;;11.15;;
17686;SDS011;8962;52.538;13.266;2023-04-15T13:28:52;14.82;;;11.63;;
17686;SDS011;8962;52.538;13.266;2023-04-15T13:31:20;13.50;;;11.38;;
17686;SDS011;8962;52.538;13.266;2023-04-15T13:33:48;12.93;;;11.20;;
17686;SDS011;8962;52.538;13.266;2023-04-15T13:36:15;16.50;;;12.52;;
17686;SDS011;8962;52.538;13.266;2023-04-15T13:38:43;14.77;;;12.18;;
17686;SDS011;8962;52.538;13.266;2023-04-15T13:41:14;14.30;;;11.50;;
17686;SDS011;8962;52.538;13.266;2023-04-15T13:43:46;14.57;;;11.90;;
17686;SDS011;8962;52.538;13.266;2023-04-15T13:46:14;16.45;;;12.73;;
17686;SDS011;8962;52.538;13.266;2023-04-15T13:48:43;13.95;;;11.90;;
17686;SDS011;8962;52.538;13.266;2023-04-15T13:51:10;15.02;;;12.63;;
17686;SDS011;8962;52.538;13.266;2023-04-15T13:53:38;17.25;;;12.70;;
17686;SDS011;8962;52.538;13.266;2023-04-15T13:56:05;14.77;;;12.10;;
17686;SDS011;8962;52.538;13.266;2023-04-15T13:58:34;18.33;;;13.23;;
17686;SDS011;8962;52.538;13.266;2023-04-15T14:01:01;16.83;;;12.75;;
17686;SDS011;8962;52.538;13.266;2023-04-15T14:03:28;16.60;;;13.30;;
17686;SDS011;8962;52.538;13.266;2023-04-15T14:05:57;15.50;;;12.82;;
17686;SDS011;8962;52.538;13.266;2023-04-15T14:08:25;14.85;;;12.82;;
17686;SDS011;8962;52.538;13.266;2023-04-15T14:10:52;15.70;;;12.68;;
17686;SDS011;8962;52.538;13.266;2023-04-15T14:13:19;17.50;;;13.15;;
17686;SDS011;8962;52.538;13.266;2023-04-15T14:15:46;17.05;;;13.00;;
17686;SDS011;8962;52.538;13.266;2023-04-15T14:18:14;17.52;;;13.15;;
17686;SDS011;8962;52.538;13.266;2023-04-15T14:20:41;15.73;;;13.20;;
17686;SDS011;8962;52.538;13.266;2023-04-15T14:23:11;14.88;;;12.80;;
17686;SDS011;8962;52.538;13.266;2023-04-15T14:25:38;15.65;;;12.32;;
17686;SDS011;8962;52.538;13.266;2023-04-15T14:28:05;19.23;;;13.05;;
17686;SDS011;8962;52.538;13.266;2023-04-15T14:30:35;15.88;;;12.32;;
17686;SDS011;8962;52.538;13.266;2023-04-15T14:33:02;15.32;;;12.88;;
17686;SDS011;8962;52.538;13.266;2023-04-15T14:35:30;17.08;;;13.23;;
17686;SDS011;8962;52.538;13.266;2023-04-15T14:37:57;16.52;;;12.35;;
17686;SDS011;8962;52.538;13.266;2023-04-15T14:40:26;15.20;;;12.35;;